Butler Co Regional Airport - Hogan Field


Codes: KHAO/HAO
Name: Butler Co Regional Airport - Hogan Field
City: Hamilton
Country: United States
Elevation: 633 ft.
Website:
Wikipedia:

Photos at Butler Co Regional Airport - Hogan Field


   Photos courtesy of SpottingLog. You can add your own sightings and photos by signing up for a free trial today.



No photos found.

Weather at Butler Co Regional Airport - Hogan Field


Time (UTC)DescriptionTempratureWindCloud coverageVisibilityPressureHumidity
17-Jun-2024 06:00Few Clouds25°C7 mph, SW18%10000m1015hPa74%
17-Jun-2024 09:00Light Rain24°C4 mph, SW28%10000m1016hPa81%
17-Jun-2024 12:00Scattered Clouds24°C4 mph, S45%10000m1017hPa82%
17-Jun-2024 15:00Few Clouds29°C9 mph, SW18%10000m1019hPa59%
17-Jun-2024 18:00Broken Clouds32°C7 mph, SW61%10000m1017hPa47%
17-Jun-2024 21:00Broken Clouds34°C9 mph, SW73%10000m1016hPa44%
18-Jun-2024 00:00Light Rain30°C7 mph, SW52%10000m1016hPa61%
18-Jun-2024 03:00Light Rain25°C4 mph, SW85%10000m1018hPa78%
18-Jun-2024 06:00Light Rain23°C2 mph, S86%10000m1019hPa91%
18-Jun-2024 09:00Overcast Clouds23°C4 mph, SE100%10000m1019hPa92%
18-Jun-2024 12:00Light Rain23°C2 mph, S100%10000m1020hPa93%
18-Jun-2024 15:00Overcast Clouds29°C7 mph, S100%10000m1021hPa61%
18-Jun-2024 18:00Overcast Clouds33°C4 mph, S100%10000m1019hPa46%
18-Jun-2024 21:00Overcast Clouds30°C2 mph, SE93%10000m1019hPa62%
19-Jun-2024 00:00Light Rain28°C4 mph, S97%10000m1020hPa70%
19-Jun-2024 03:00Overcast Clouds25°C2 mph, NW91%10000m1021hPa79%
19-Jun-2024 06:00Overcast Clouds24°C0 mph, S94%10000m1021hPa84%
19-Jun-2024 09:00Overcast Clouds23°C2 mph, SE100%10000m1021hPa86%
19-Jun-2024 12:00Overcast Clouds25°C0 mph, NW100%10000m1023hPa81%
19-Jun-2024 15:00Overcast Clouds27°C2 mph, E100%10000m1024hPa72%
19-Jun-2024 18:00Light Rain32°C4 mph, NE100%10000m1023hPa53%
19-Jun-2024 21:00Overcast Clouds32°C7 mph, NE90%10000m1022hPa53%
20-Jun-2024 00:00Overcast Clouds29°C4 mph, SE95%10000m1022hPa67%
20-Jun-2024 03:00Light Rain25°C2 mph, E92%10000m1024hPa77%
20-Jun-2024 06:00Broken Clouds23°C2 mph, NE66%10000m1024hPa83%
20-Jun-2024 09:00Broken Clouds22°C2 mph, NE82%10000m1024hPa86%
20-Jun-2024 12:00Overcast Clouds24°C2 mph, NE91%10000m1025hPa81%
20-Jun-2024 15:00Overcast Clouds29°C4 mph, NE100%10000m1025hPa64%
20-Jun-2024 18:00Light Rain32°C7 mph, E99%10000m1024hPa48%
20-Jun-2024 21:00Overcast Clouds31°C4 mph, E100%10000m1023hPa50%
21-Jun-2024 00:00Overcast Clouds29°C4 mph, E100%10000m1022hPa64%
21-Jun-2024 03:00Overcast Clouds26°C2 mph, E100%10000m1023hPa67%
21-Jun-2024 06:00Light Rain23°C4 mph, N100%10000m1023hPa84%
21-Jun-2024 09:00Overcast Clouds23°C2 mph, E100%10000m1023hPa88%
21-Jun-2024 12:00Overcast Clouds24°C2 mph, E100%10000m1023hPa84%
21-Jun-2024 15:00Overcast Clouds31°C2 mph, E91%10000m1022hPa60%
21-Jun-2024 18:00Light Rain34°C7 mph, N89%10000m1020hPa44%
21-Jun-2024 21:00Moderate Rain25°C2 mph, SW88%9297m1020hPa86%
22-Jun-2024 00:00Moderate Rain23°C7 mph, NE96%10000m1019hPa85%
22-Jun-2024 03:00Overcast Clouds24°C2 mph, W100%10000m1019hPa79%